Terminal Aerodrome Forecast
Issued by NWS

Home | Current Version | Previous Version | Text Only | Print | Product List | Glossary On
Versions: 1 2 3 4 5 6 7 8 9 10 11 12 13 14 15 16 17 18 19 20 21 22 23
460
FTUS42 KFFC 062325
TAFRYY
TAF
KRYY 062325Z 0700/0724 33010G20KT P6SM FEW080
     FM070300 31006KT P6SM SKC
     FM071500 30010KT P6SM FEW045
     FM071900 30013G23KT P6SM FEW060
      AMD NOT SKED 0704/0712=

USA.gov is the U.S. government's official web portal to all federal, state and local government web resources and services.